Time;durP1;ratioP1;P1;durP2;ratioP2;P2;SDS_P1;SDS_P2;PMS_P1;PMS_P2;Temp;Humidity;BMP_temperature;BMP_pressure;BME280_temperature;BME280_humidity;BME280_pressure;Samples;Min_cycle;Max_cycle;Signal;HPM_P1;HPM_P2
2022/04/10 00:00:29;;;;;;;13.52;4.60;;;;;;;3.47;83.90;101708.63;7389459;19;20014;-56
2022/04/10 00:02:58;;;;;;;12.50;4.45;;;;;;;3.51;83.61;101706.03;7389234;19;20029;-53
2022/04/10 00:05:27;;;;;;;20.33;6.72;;;;;;;3.50;84.14;101704.31;7388052;19;20018;-56
2022/04/10 00:08:00;;;;;;;14.13;5.95;;;;;;;3.46;84.37;101709.47;7388988;19;20034;-56
2022/04/10 00:10:29;;;;;;;14.82;5.47;;;;;;;3.50;84.35;101700.00;7387240;19;20239;-55
2022/04/10 00:12:58;;;;;;;13.00;5.47;;;;;;;3.46;84.75;101703.44;7388605;19;20010;-52
2022/04/10 00:15:27;;;;;;;17.02;4.60;;;;;;;3.48;84.59;101706.88;7388042;19;20484;-53
2022/04/10 00:17:56;;;;;;;13.75;4.32;;;;;;;3.45;84.37;101715.56;7388970;19;20019;-55
2022/04/10 00:20:25;;;;;;;16.73;4.85;;;;;;;3.41;84.56;101719.00;7387852;19;20025;-57
2022/04/10 00:22:54;;;;;;;15.73;4.90;;;;;;;3.36;84.74;101722.47;7388581;19;20317;-56
2022/04/10 00:25:26;;;;;;;13.20;4.43;;;;;;;3.35;85.58;101718.13;7387121;19;20019;-52
2022/04/10 00:27:55;;;;;;;13.07;4.65;;;;;;;3.41;84.78;101719.00;7390604;19;20072;-52
2022/04/10 00:30:24;;;;;;;15.25;4.60;;;;;;;3.44;85.13;101721.59;7387744;19;20074;-52
2022/04/10 00:32:52;;;;;;;15.32;4.57;;;;;;;3.44;85.45;101713.81;7389929;19;20030;-52
2022/04/10 00:35:22;;;;;;;11.88;4.75;;;;;;;3.41;85.16;101711.22;7386190;19;20333;-54
2022/04/10 00:37:51;;;;;;;15.60;4.72;;;;;;;3.41;84.43;101716.41;7390378;19;20030;-53
2022/04/10 00:40:19;;;;;;;11.05;4.10;;;;;;;3.35;85.64;101708.63;7386003;19;20021;-52
2022/04/10 00:42:52;;;;;;;13.02;4.30;;;;;;;3.33;85.44;101715.53;7382175;19;20022;-57
2022/04/10 00:45:22;;;;;;;;;;;;;;;3.09;85.86;101706.88;7383174;19;20412;-52
2022/04/10 00:47:51;;;;;;;10.75;3.85;;;;;;;2.98;85.49;101695.69;7387353;19;19914;-53
2022/04/10 00:50:22;;;;;;;14.18;4.68;;;;;;;3.11;86.24;101697.41;7393249;19;20014;-56
2022/04/10 00:52:51;;;;;;;13.98;3.97;;;;;;;3.09;86.80;101699.09;7389127;19;20010;-57
2022/04/10 00:55:22;;;;;;;11.23;4.20;;;;;;;3.06;87.24;101704.28;7385930;19;20018;-52
2022/04/10 00:57:53;;;;;;;12.65;4.53;;;;;;;3.01;87.06;101699.97;7388698;19;20078;-52
2022/04/10 01:00:22;;;;;;;14.48;5.05;;;;;;;3.01;87.55;101690.50;7387324;19;20022;-52
2022/04/10 01:02:51;;;;;;;12.43;4.15;;;;;;;3.09;88.10;101696.53;7389366;19;20021;-51
2022/04/10 01:05:20;;;;;;;16.77;4.35;;;;;;;2.99;86.86;101694.78;7386034;19;20023;-52
2022/04/10 01:07:49;;;;;;;10.25;4.13;;;;;;;2.96;87.48;101693.94;7390712;19;20472;-52
2022/04/10 01:10:19;;;;;;;13.98;4.32;;;;;;;3.04;88.38;101705.19;7396821;19;20014;-54
2022/04/10 01:12:48;;;;;;;10.18;3.88;;;;;;;3.10;87.78;101703.44;7394176;19;20491;-54
2022/04/10 01:15:25;;;;;;;11.57;3.92;;;;;;;3.07;88.20;101705.19;7391989;19;20018;-53
2022/04/10 01:17:55;;;;;;;11.70;4.13;;;;;;;2.97;87.67;101698.25;7393156;19;20033;-58
2022/04/10 01:20:25;;;;;;;15.85;4.22;;;;;;;3.08;88.26;101700.00;7392177;19;20130;-56
2022/04/10 01:23:01;;;;;;;14.05;3.78;;;;;;;3.07;89.08;101692.22;7392813;19;20019;-57
2022/04/10 01:25:30;;;;;;;;;;;;;;;2.90;88.48;101715.50;7391374;19;20085;-54
2022/04/10 01:28:01;;;;;;;12.95;4.00;;;;;;;2.89;88.41;101706.84;7393301;19;20003;-57
2022/04/10 01:30:31;;;;;;;14.57;4.78;;;;;;;2.86;88.57;101717.19;7390890;19;20010;-56
2022/04/10 01:33:01;;;;;;;13.65;4.55;;;;;;;2.92;89.70;101709.47;7385955;19;20052;-58
2022/04/10 01:35:31;;;;;;;13.48;4.82;;;;;;;2.87;90.19;101707.72;7387991;19;20576;-57
2022/04/10 01:38:04;;;;;;;13.15;4.85;;;;;;;2.98;89.70;101720.69;7392129;19;20026;-54
2022/04/10 01:40:39;;;;;;;15.68;5.93;;;;;;;2.84;89.24;101721.53;7388066;19;20019;-57
2022/04/10 01:43:08;;;;;;;16.02;5.47;;;;;;;2.80;89.95;101721.53;7385672;19;20015;-57
2022/04/10 01:45:37;;;;;;;12.93;5.18;;;;;;;2.84;89.69;101723.25;7387973;19;20017;-54
2022/04/10 01:48:07;;;;;;;15.30;5.18;;;;;;;2.81;90.52;101731.88;7392418;19;20022;-56
2022/04/10 01:50:36;;;;;;;17.45;5.70;;;;;;;2.72;90.79;101726.66;7393530;19;20022;-54
2022/04/10 01:53:08;;;;;;;15.88;5.75;;;;;;;2.69;91.04;101726.66;7392805;19;20045;-55
2022/04/10 01:55:38;;;;;;;17.90;6.00;;;;;;;2.66;91.15;101727.50;7390921;19;20021;-56
2022/04/10 01:58:07;;;;;;;18.15;5.80;;;;;;;2.50;90.65;101739.53;7397152;19;20056;-55
2022/04/10 02:00:36;;;;;;;14.70;5.65;;;;;;;2.56;90.85;101730.91;7398442;19;20019;-52
2022/04/10 02:03:05;;;;;;;13.93;5.80;;;;;;;2.49;90.91;101735.19;7399301;19;20597;-51
2022/04/10 02:05:34;;;;;;;11.20;5.60;;;;;;;2.47;90.60;101743.84;7399671;19;20022;-54
2022/04/10 02:08:03;;;;;;;12.65;5.28;;;;;;;2.38;90.44;101737.75;7402605;19;20069;-55
2022/04/10 02:10:36;;;;;;;15.30;5.35;;;;;;;2.36;90.85;101742.03;7399816;19;20090;-55
2022/04/10 02:13:07;;;;;;;15.40;5.72;;;;;;;2.42;90.91;101746.38;7394377;19;20045;-55
2022/04/10 02:15:37;;;;;;;16.55;5.10;;;;;;;2.38;91.23;101735.16;7390928;19;20006;-55
2022/04/10 02:18:07;;;;;;;12.65;5.40;;;;;;;2.30;90.21;101741.16;7391505;19;20025;-55
2022/04/10 02:20:36;;;;;;;16.10;5.70;;;;;;;2.42;90.81;101747.25;7392088;19;20025;-55
2022/04/10 02:23:06;;;;;;;15.35;5.55;;;;;;;2.40;90.70;101743.78;7390487;19;20025;-53
2022/04/10 02:25:38;;;;;;;16.70;6.22;;;;;;;2.29;90.45;101753.22;7388666;19;20026;-57
2022/04/10 02:28:08;;;;;;;15.60;6.10;;;;;;;2.30;90.95;101752.38;7391788;19;20515;-51
2022/04/10 02:30:38;;;;;;;15.93;5.70;;;;;;;2.31;90.40;101753.25;7392797;19;20043;-51
2022/04/10 02:33:07;;;;;;;25.58;6.20;;;;;;;2.23;90.93;101754.03;7393167;19;20038;-51
2022/04/10 02:35:36;;;;;;;16.35;5.90;;;;;;;2.26;91.04;101748.03;7389176;19;20026;-56
2022/04/10 02:38:05;;;;;;;15.50;5.75;;;;;;;2.21;90.48;101753.19;7390574;19;20017;-55
2022/04/10 02:40:34;;;;;;;15.68;6.40;;;;;;;2.16;90.58;101749.69;7391519;19;20117;-52
2022/04/10 02:43:05;;;;;;;18.88;6.15;;;;;;;2.07;91.55;101747.94;7390777;19;20026;-56
2022/04/10 02:45:34;;;;;;;17.17;6.00;;;;;;;2.10;91.23;101741.91;7389588;19;20476;-55
2022/04/10 02:48:03;;;;;;;16.38;5.70;;;;;;;2.09;90.57;101747.94;7392348;19;20014;-57
2022/04/10 02:50:32;;;;;;;17.08;6.07;;;;;;;2.09;90.97;101747.94;7391055;19;20014;-57
2022/04/10 02:53:01;;;;;;;13.90;6.47;;;;;;;2.11;91.16;101758.28;7394507;19;20019;-53
2022/04/10 02:55:30;;;;;;;16.17;5.88;;;;;;;2.16;90.67;101752.28;7389109;19;20531;-54
2022/04/10 02:58:01;;;;;;;14.20;5.82;;;;;;;2.18;90.87;101754.91;7389567;19;20041;-58
2022/04/10 03:00:33;;;;;;;16.00;5.57;;;;;;;2.21;90.71;101749.75;7389613;19;20054;-57
2022/04/10 03:03:02;;;;;;;16.55;6.30;;;;;;;2.17;90.16;101748.00;7389342;19;20018;-57
2022/04/10 03:05:31;;;;;;;16.55;6.15;;;;;;;2.11;90.59;101759.16;7387941;19;20056;-52
2022/04/10 03:08:00;;;;;;;14.77;6.45;;;;;;;2.08;90.58;101764.31;7389097;19;20025;-51
2022/04/10 03:10:29;;;;;;;23.00;6.20;;;;;;;2.22;89.96;101787.66;7389846;19;20036;-52
2022/04/10 03:13:00;;;;;;;17.88;6.82;;;;;;;2.27;91.36;101787.72;7393999;19;20490;-51
2022/04/10 03:15:29;;;;;;;16.33;5.95;;;;;;;2.25;90.19;101777.34;7387880;19;20014;-55
2022/04/10 03:18:01;;;;;;;16.73;6.10;;;;;;;2.26;89.04;101779.06;7389405;19;20019;-54
2022/04/10 03:20:30;;;;;;;14.07;5.32;;;;;;;2.30;88.56;101785.97;7389166;19;20017;-52
2022/04/10 03:22:59;;;;;;;13.82;5.35;;;;;;;2.34;87.96;101782.56;7391303;19;20120;-56
2022/04/10 03:25:29;;;;;;;14.10;4.90;;;;;;;2.26;87.70;101784.22;7387433;19;20018;-56
2022/04/10 03:27:58;;;;;;;12.82;4.75;;;;;;;2.23;86.93;101789.38;7387718;19;20342;-51
2022/04/10 03:30:27;;;;;;;17.25;5.35;;;;;;;2.23;87.85;101786.81;7387895;19;20030;-53
2022/04/10 03:32:55;;;;;;;15.07;5.28;;;;;;;2.22;87.69;101787.66;7393234;19;20017;-55
2022/04/10 03:35:27;;;;;;;13.43;5.57;;;;;;;2.21;88.42;101785.94;7386966;19;20446;-54
2022/04/10 03:37:56;;;;;;;16.23;5.40;;;;;;;2.29;88.29;101786.84;7388434;19;20383;-55
2022/04/10 03:40:25;;;;;;;12.85;5.22;;;;;;;2.49;89.61;101783.50;7388812;19;20021;-51
2022/04/10 03:42:55;;;;;;;12.05;4.90;;;;;;;2.43;87.54;101781.75;7387744;19;20021;-53
2022/04/10 03:45:26;;;;;;;16.08;5.05;;;;;;;2.35;87.23;101792.06;7387187;19;20352;-51
2022/04/10 03:47:55;;;;;;;14.02;4.82;;;;;;;2.42;88.10;101799.00;7387077;19;20125;-56
2022/04/10 03:50:28;;;;;;;14.57;5.22;;;;;;;2.45;86.90;101794.69;7387627;19;20048;-56
2022/04/10 03:52:58;;;;;;;14.85;5.70;;;;;;;2.40;87.03;101798.09;7390360;19;20026;-55
2022/04/10 03:55:28;;;;;;;15.18;5.10;;;;;;;2.43;87.64;101797.25;7388379;19;20471;-55
2022/04/10 03:58:00;;;;;;;17.00;5.43;;;;;;;2.39;87.68;101796.41;7388327;19;20021;-55
2022/04/10 04:00:29;;;;;;;12.32;5.63;;;;;;;2.43;88.40;101798.13;7387555;19;20010;-57
2022/04/10 04:03:04;;;;;;;11.25;5.18;;;;;;;2.43;88.22;101798.13;7388811;19;20007;-55
2022/04/10 04:05:38;;;;;;;14.63;4.93;;;;;;;2.33;87.48;101796.34;7387254;19;20030;-54
2022/04/10 04:08:11;;;;;;;16.23;5.18;;;;;;;2.32;88.76;101794.63;7387117;19;20077;-55
2022/04/10 04:10:40;;;;;;;13.95;5.30;;;;;;;2.36;89.21;101804.13;7387192;19;20111;-55
2022/04/10 04:13:09;;;;;;;18.25;5.72;;;;;;;2.36;88.27;101814.47;7389834;19;20038;-56
2022/04/10 04:15:38;;;;;;;16.70;5.20;;;;;;;2.32;88.64;101817.91;7387107;19;20038;-56
2022/04/10 04:18:08;;;;;;;13.70;4.80;;;;;;;2.19;89.63;101819.56;7388244;19;20026;-55
2022/04/10 04:20:40;;;;;;;13.68;5.75;;;;;;;2.12;89.50;101820.38;7388009;19;20010;-53
2022/04/10 04:23:09;;;;;;;17.45;5.65;;;;;;;2.14;89.15;101812.63;7388877;19;20030;-51
2022/04/10 04:25:38;;;;;;;15.07;5.45;;;;;;;2.20;89.49;101821.25;7387091;19;20030;-52
2022/04/10 04:28:09;;;;;;;13.02;4.78;;;;;;;2.23;88.83;101820.41;7386635;19;20019;-56
2022/04/10 04:30:38;;;;;;;13.40;5.20;;;;;;;2.21;90.21;101822.16;7387246;19;20007;-52
2022/04/10 04:33:08;;;;;;;18.45;5.65;;;;;;;2.28;89.56;101823.03;7387811;19;20048;-52
2022/04/10 04:35:37;;;;;;;16.50;5.63;;;;;;;2.24;89.30;101829.91;7386724;19;20049;-56
2022/04/10 04:38:10;;;;;;;12.77;5.40;;;;;;;2.33;89.91;101831.69;7388281;19;20346;-55
2022/04/10 04:40:40;;;;;;;17.23;5.63;;;;;;;2.33;89.11;101816.19;7388125;19;20011;-56
2022/04/10 04:43:10;;;;;;;11.75;5.18;;;;;;;2.40;90.23;101823.13;7395142;19;20074;-56
2022/04/10 04:45:40;;;;;;;17.50;5.95;;;;;;;2.33;88.61;101824.78;7392243;19;20111;-56
2022/04/10 04:48:15;;;;;;;17.35;5.30;;;;;;;2.31;89.21;101818.75;7393277;19;20021;-54
2022/04/10 04:50:47;;;;;;;15.38;5.35;;;;;;;2.33;89.58;101818.75;7394257;19;20015;-55
2022/04/10 04:53:24;;;;;;;17.70;5.50;;;;;;;2.30;89.14;101811.84;7395421;19;20456;-53
2022/04/10 04:55:53;;;;;;;12.25;5.70;;;;;;;2.25;89.56;101826.50;7399254;19;20075;-55
2022/04/10 04:58:22;;;;;;;16.45;5.60;;;;;;;2.25;88.99;101816.16;7395271;19;20022;-55
2022/04/10 05:00:51;;;;;;;17.27;5.15;;;;;;;2.33;88.84;101819.63;7395132;19;20094;-54
2022/04/10 05:03:21;;;;;;;13.60;5.60;;;;;;;2.34;88.49;101830.84;7398461;19;20380;-53
2022/04/10 05:05:50;;;;;;;16.58;4.97;;;;;;;2.46;88.58;101837.81;7392289;19;20021;-51
2022/04/10 05:08:27;;;;;;;13.93;4.90;;;;;;;2.46;89.07;101837.81;7392364;19;20018;-51
2022/04/10 05:10:58;;;;;;;14.38;5.05;;;;;;;2.53;88.85;101837.00;7395256;19;20094;-55
2022/04/10 05:13:27;;;;;;;14.20;5.60;;;;;;;2.46;88.46;101830.91;7395817;19;20017;-56
2022/04/10 05:15:57;;;;;;;12.90;6.13;;;;;;;2.46;89.00;101828.31;7397057;19;20029;-53
2022/04/10 05:18:31;;;;;;;14.00;5.35;;;;;;;2.51;90.24;101833.53;7393718;19;20483;-57
2022/04/10 05:21:00;;;;;;;16.33;5.80;;;;;;;2.45;88.54;101838.66;7393457;19;20017;-56
2022/04/10 05:23:32;;;;;;;16.65;5.65;;;;;;;2.45;89.04;101838.66;7393676;19;20090;-56
2022/04/10 05:26:10;;;;;;;18.48;5.93;;;;;;;2.34;89.60;101841.19;7394361;19;20011;-56
2022/04/10 05:28:41;;;;;;;14.93;5.45;;;;;;;2.40;89.52;101841.22;7391412;19;20075;-57
2022/04/10 05:31:10;;;;;;;15.82;5.32;;;;;;;2.38;89.48;101840.38;7393133;19;20460;-56
2022/04/10 05:33:42;;;;;;;19.17;5.03;;;;;;;2.37;88.99;101844.66;7393861;19;20144;-57
2022/04/10 05:36:11;;;;;;;14.18;5.80;;;;;;;2.44;89.43;101848.16;7395528;19;20018;-56
2022/04/10 05:38:47;;;;;;;;;;;;;;;2.50;88.96;101847.31;7394168;19;20021;-55
2022/04/10 05:41:17;;;;;;;15.27;5.43;;;;;;;2.49;89.39;101855.94;7392135;19;19946;-57
2022/04/10 05:43:50;;;;;;;16.95;6.13;;;;;;;2.23;88.75;101864.38;7392007;19;20361;-54
2022/04/10 05:46:19;;;;;;;15.88;5.95;;;;;;;2.22;89.79;101866.13;7392444;19;20015;-53
2022/04/10 05:48:54;;;;;;;11.50;5.28;;;;;;;2.14;89.80;101860.00;7394025;19;20017;-54
2022/04/10 05:51:25;;;;;;;13.52;5.63;;;;;;;2.12;90.18;101866.91;7393206;19;20021;-53
2022/04/10 05:53:57;;;;;;;14.05;5.97;;;;;;;2.15;90.35;101873.78;7391505;19;20023;-54
2022/04/10 05:56:26;;;;;;;14.60;5.95;;;;;;;2.21;89.94;101868.69;7395356;19;20838;-52
2022/04/10 05:58:56;;;;;;;17.20;6.10;;;;;;;2.19;90.13;101879.03;7392725;19;20341;-57
2022/04/10 06:01:25;;;;;;;14.77;6.13;;;;;;;2.23;90.48;101882.50;7396317;19;20014;-51
2022/04/10 06:03:56;;;;;;;12.50;5.63;;;;;;;2.36;90.41;101896.38;7392596;19;20074;-54
2022/04/10 06:06:25;;;;;;;13.85;6.68;;;;;;;2.31;90.10;101898.94;7393247;19;20014;-53
2022/04/10 06:09:07;;;;;;;13.65;6.65;;;;;;;2.39;90.62;101902.44;7394200;19;20017;-56
2022/04/10 06:11:37;;;;;;;;;;;;;;;2.47;90.18;101901.63;7398538;19;20115;-52
2022/04/10 06:14:06;;;;;;;16.00;6.00;;;;;;;2.40;89.65;101895.53;7396678;19;20471;-54
2022/04/10 06:16:35;;;;;;;15.38;6.78;;;;;;;2.44;90.32;101897.28;7400620;19;20010;-52
2022/04/10 06:19:04;;;;;;;15.52;6.75;;;;;;;2.52;90.01;101907.69;7406999;19;20140;-57
2022/04/10 06:21:34;;;;;;;14.98;6.80;;;;;;;2.45;89.08;101914.56;7401624;19;20026;-52
2022/04/10 06:24:06;;;;;;;21.77;7.85;;;;;;;2.52;89.89;101915.44;7393954;19;20017;-57
2022/04/10 06:26:41;;;;;;;14.02;6.47;;;;;;;2.65;89.82;101917.28;7396993;19;20010;-57
2022/04/10 06:29:10;;;;;;;16.00;6.65;;;;;;;2.70;89.15;101910.41;7391869;19;20026;-53
2022/04/10 06:31:49;;;;;;;14.20;6.85;;;;;;;2.81;88.17;101914.75;7395328;19;20021;-55
2022/04/10 06:34:20;;;;;;;12.88;7.10;;;;;;;2.88;87.96;101908.75;7393375;19;20022;-54
2022/04/10 06:36:50;;;;;;;21.75;8.30;;;;;;;2.97;87.90;101905.38;7394896;19;20434;-55
2022/04/10 06:39:24;;;;;;;17.95;7.35;;;;;;;3.15;87.39;101912.34;7399984;19;20042;-51
2022/04/10 06:41:56;;;;;;;18.33;6.60;;;;;;;3.15;86.94;101907.16;7396434;19;20022;-55
2022/04/10 06:44:44;;;;;;;13.63;6.30;;;;;;;3.23;86.57;101916.69;7394842;19;20021;-52
2022/04/10 06:47:36;;;;;;;14.23;6.47;;;;;;;3.49;86.19;101922.84;7392905;19;20326;-52
2022/04/10 06:50:07;;;;;;;13.93;6.57;;;;;;;3.54;85.70;101924.59;7393294;19;20046;-53
2022/04/10 06:52:37;;;;;;;13.52;6.35;;;;;;;3.61;85.45;101947.06;7393417;19;20021;-51
2022/04/10 06:55:10;;;;;;;19.70;6.80;;;;;;;3.57;85.91;101960.88;7391464;19;20023;-54
2022/04/10 06:57:39;;;;;;;13.10;5.38;;;;;;;3.70;84.39;101966.09;7396000;19;20023;-55
2022/04/10 07:00:10;;;;;;;9.43;4.95;;;;;;;3.90;85.84;101967.00;7398403;19;20018;-52
2022/04/10 07:02:41;;;;;;;10.68;4.05;;;;;;;3.97;81.52;101960.97;7393627;19;20018;-56
2022/04/10 07:05:11;;;;;;;12.68;3.83;;;;;;;3.80;81.47;101970.44;7388493;19;20074;-53
2022/04/10 07:07:44;;;;;;;15.68;4.95;;;;;;;3.83;82.70;101970.44;7396116;19;20022;-54
2022/04/10 07:10:19;;;;;;;10.88;3.80;;;;;;;3.92;84.50;101972.19;7398695;19;20034;-53
2022/04/10 07:12:49;;;;;;;8.30;3.90;;;;;;;3.86;84.45;101969.59;7393848;19;20014;-50
2022/04/10 07:15:17;;;;;;;9.95;3.58;;;;;;;4.01;86.42;101984.31;7392449;19;20036;-57
2022/04/10 07:17:46;;;;;;;9.38;3.85;;;;;;;4.11;87.20;101984.34;7392243;19;20021;-55
2022/04/10 07:20:16;;;;;;;9.38;3.10;;;;;;;3.93;85.80;101990.34;7396745;19;20022;-51
2022/04/10 07:25:31;;;;;;;7.38;3.13;;;;;;;3.72;89.16;101988.53;7389430;19;20021;-51
2022/04/10 07:28:00;;;;;;;7.57;3.20;;;;;;;3.62;88.88;101986.78;7388507;19;20107;-57
2022/04/10 07:30:39;;;;;;;8.68;2.95;;;;;;;3.73;90.90;101992.03;7389379;19;20018;-56
2022/04/10 07:33:13;;;;;;;8.05;2.40;;;;;;;3.65;88.17;101989.38;7390304;19;20010;-53
2022/04/10 07:35:47;;;;;;;11.77;3.33;;;;;;;3.85;90.44;101986.84;7388223;19;20383;-54
2022/04/10 07:38:34;;;;;;;9.65;2.72;;;;;;;3.97;90.11;101992.09;7389263;19;20014;-52
2022/04/10 07:41:09;;;;;;;6.72;2.80;;;;;;;4.06;88.34;101987.78;7391905;19;20025;-57
2022/04/10 07:43:46;;;;;;;4.70;2.45;;;;;;;4.18;88.37;101994.72;7390985;19;20014;-55
2022/04/10 07:49:04;;;;;;;7.68;2.17;;;;;;;4.34;84.29;101999.03;7387651;19;20015;-56
2022/04/10 07:51:38;;;;;;;4.55;1.80;;;;;;;4.46;83.36;102005.97;7389611;19;20092;-54
2022/04/10 07:54:15;;;;;;;5.32;1.98;;;;;;;4.61;85.49;102002.50;7389226;19;20018;-55
2022/04/10 07:56:46;;;;;;;7.25;2.50;;;;;;;4.90;83.96;101996.41;7389569;19;20014;-52
2022/04/10 07:59:20;;;;;;;4.28;1.75;;;;;;;5.10;79.94;101999.84;7387808;19;20037;-54
2022/04/10 08:01:49;;;;;;;8.05;2.15;;;;;;;5.09;81.27;102008.50;7392818;19;20368;-54
2022/04/10 08:04:23;;;;;;;5.72;1.88;;;;;;;5.11;80.30;102004.16;7388079;19;20048;-54
2022/04/10 08:07:03;;;;;;;7.65;1.80;;;;;;;5.35;82.45;102016.22;7388604;19;20010;-54
2022/04/10 08:09:32;;;;;;;5.43;1.85;;;;;;;5.47;80.36;102015.34;7387427;19;20021;-54
2022/04/10 08:12:03;;;;;;;5.35;1.95;;;;;;;5.61;79.42;102006.63;7390573;19;20423;-54
2022/04/10 08:14:32;;;;;;;5.90;1.80;;;;;;;5.80;80.19;102018.66;7390475;19;20007;-54
2022/04/10 08:17:01;;;;;;;4.15;1.50;;;;;;;5.75;77.57;102015.22;7388966;19;20010;-57
2022/04/10 08:19:30;;;;;;;5.75;1.77;;;;;;;5.85;77.68;102022.09;7388855;19;20377;-51
2022/04/10 08:21:58;;;;;;;6.05;1.75;;;;;;;5.95;76.82;102015.09;7393619;19;20078;-54
2022/04/10 08:24:28;;;;;;;3.75;1.65;;;;;;;6.02;77.40;102026.38;7395504;19;20064;-55
2022/04/10 08:26:57;;;;;;;6.55;2.03;;;;;;;6.17;78.79;102034.06;7389647;19;20484;-51
2022/04/10 08:29:28;;;;;;;7.35;1.92;;;;;;;5.83;75.75;102029.06;7387922;19;20021;-54
2022/04/10 08:31:57;;;;;;;5.70;1.92;;;;;;;5.88;75.45;102027.28;7389864;19;20015;-59
2022/04/10 08:34:26;;;;;;;5.05;1.40;;;;;;;6.02;75.09;102036.78;7387341;19;20025;-55
2022/04/10 08:36:55;;;;;;;4.97;1.60;;;;;;;6.20;76.18;102031.47;7388948;19;20015;-52
2022/04/10 08:39:25;;;;;;;5.70;2.00;;;;;;;6.31;74.65;102028.78;7389471;19;20006;-54
2022/04/10 08:41:58;;;;;;;6.75;1.73;;;;;;;6.41;73.19;102037.41;7391265;19;20022;-54
2022/04/10 08:44:30;;;;;;;5.85;1.80;;;;;;;6.25;71.20;102028.84;7389028;19;20010;-52
2022/04/10 08:47:00;;;;;;;5.10;1.73;;;;;;;6.32;71.04;102035.72;7389134;19;20007;-55
2022/04/10 08:49:31;;;;;;;4.63;1.73;;;;;;;6.45;71.99;102031.31;7386147;19;20023;-51
2022/04/10 08:52:01;;;;;;;7.03;2.17;;;;;;;6.45;70.41;102039.09;7391338;19;20427;-56
2022/04/10 08:54:30;;;;;;;5.85;1.70;;;;;;;6.38;71.07;102037.44;7388476;19;20026;-54
2022/04/10 08:56:59;;;;;;;3.70;1.58;;;;;;;6.66;70.53;102040.69;7390392;19;20483;-51
2022/04/10 08:59:31;;;;;;;5.50;1.60;;;;;;;6.61;68.89;102049.41;7390283;19;20011;-56
2022/04/10 09:01:59;;;;;;;6.82;1.52;;;;;;;6.45;69.23;102040.81;7394609;19;20022;-54
2022/04/10 09:04:29;;;;;;;7.03;1.60;;;;;;;6.73;68.91;102042.38;7388644;19;20036;-57
2022/04/10 09:07:00;;;;;;;13.25;1.70;;;;;;;6.74;65.62;102051.88;7389800;19;20022;-57
2022/04/10 09:09:29;;;;;;;4.47;1.70;;;;;;;6.96;66.07;102045.63;7386889;19;20462;-55
2022/04/10 09:11:59;;;;;;;7.60;2.05;;;;;;;7.20;65.42;102050.59;7392024;19;20021;-52
2022/04/10 09:14:36;;;;;;;4.82;1.65;;;;;;;7.31;63.81;102057.44;7388461;19;20026;-54
2022/04/10 09:17:13;;;;;;;5.40;1.60;;;;;;;7.22;63.71;102058.41;7388852;19;20029;-55
2022/04/10 09:19:45;;;;;;;3.95;1.45;;;;;;;6.97;64.10;102049.97;7388226;19;20452;-54
2022/04/10 09:22:30;;;;;;;5.20;1.50;;;;;;;7.20;65.16;102047.13;7389405;19;20022;-54
2022/04/10 09:25:13;;;;;;;5.45;1.58;;;;;;;7.39;66.71;102048.66;7388433;19;20026;-56
2022/04/10 09:27:43;;;;;;;9.32;1.88;;;;;;;7.91;65.87;102052.38;7389196;19;20022;-54
2022/04/10 09:30:16;;;;;;;7.50;1.92;;;;;;;7.57;63.00;102052.78;7394856;19;20014;-54
2022/04/10 09:32:46;;;;;;;4.20;1.60;;;;;;;7.63;62.76;102051.88;7394858;19;20010;-52
2022/04/10 09:35:17;;;;;;;5.00;1.10;;;;;;;8.02;63.23;102057.44;7393263;19;20052;-58
2022/04/10 09:37:48;;;;;;;6.97;1.40;;;;;;;8.19;60.76;102048.53;7394978;19;20137;-55
2022/04/10 09:40:29;;;;;;;4.95;1.42;;;;;;;7.97;60.64;102051.44;7394348;19;20010;-53
2022/04/10 09:43:03;;;;;;;4.63;1.38;;;;;;;7.84;59.74;102057.69;7397249;19;20313;-54
2022/04/10 09:45:38;;;;;;;7.22;1.60;;;;;;;7.65;59.28;102050.13;7391974;19;20026;-53
2022/04/10 09:48:21;;;;;;;7.55;2.20;;;;;;;7.72;62.59;102053.50;7394722;19;20427;-52
2022/04/10 09:50:52;;;;;;;6.55;1.88;;;;;;;7.85;60.38;102055.09;7394388;19;20022;-51
2022/04/10 09:53:21;;;;;;;5.22;1.75;;;;;;;7.65;59.30;102055.34;7395493;19;20378;-54
2022/04/10 09:55:55;;;;;;;5.72;1.42;;;;;;;7.76;63.98;102057.78;7392370;19;20025;-57
2022/04/10 09:58:25;;;;;;;8.00;1.85;;;;;;;7.54;56.68;102065.88;7395820;19;20015;-54
2022/04/10 10:00:58;;;;;;;6.20;1.33;;;;;;;7.61;58.69;102054.50;7394093;19;20337;-57
2022/04/10 10:03:28;;;;;;;4.30;1.50;;;;;;;7.97;60.55;102052.28;7396856;19;20344;-54
2022/04/10 10:05:58;;;;;;;4.22;1.40;;;;;;;8.59;58.71;102058.41;7396241;19;20010;-55
2022/04/10 10:08:28;;;;;;;6.75;1.40;;;;;;;8.04;56.56;102049.59;7392717;19;20019;-55
2022/04/10 10:10:59;;;;;;;6.30;1.40;;;;;;;7.96;57.27;102052.31;7393836;19;20014;-50
2022/04/10 10:13:29;;;;;;;5.35;1.58;;;;;;;8.22;58.09;102054.53;7392791;19;20166;-55
2022/04/10 10:16:01;;;;;;;5.28;1.50;;;;;;;8.27;58.66;102051.91;7388963;19;20048;-57
2022/04/10 10:18:30;;;;;;;5.45;1.83;;;;;;;8.32;57.03;102064.00;7388342;19;20074;-55
2022/04/10 10:20:59;;;;;;;5.15;1.30;;;;;;;8.27;55.58;102062.34;7395131;19;20016;-51
2022/04/10 10:23:29;;;;;;;6.28;1.58;;;;;;;8.36;57.72;102056.13;7403780;19;20019;-51
2022/04/10 10:26:14;;;;;;;6.25;1.45;;;;;;;8.62;57.42;102056.59;7405248;19;20030;-55
2022/04/10 10:29:05;;;;;;;7.60;1.70;;;;;;;8.55;54.69;102054.09;7400326;19;20018;-55
2022/04/10 10:31:54;;;;;;;7.28;1.67;;;;;;;8.76;54.86;102048.53;7399119;19;20023;-51
2022/04/10 10:34:26;;;;;;;4.40;1.50;;;;;;;8.86;53.52;102044.00;7397296;19;20022;-55
2022/04/10 10:36:57;;;;;;;7.75;1.80;;;;;;;9.24;52.45;102060.78;7395154;19;20018;-51
2022/04/10 10:39:26;;;;;;;5.07;1.42;;;;;;;8.92;53.40;102041.28;7393054;19;20331;-52
2022/04/10 10:41:55;;;;;;;5.72;1.30;;;;;;;8.68;53.65;102053.00;7392970;19;20371;-55
2022/04/10 10:44:43;;;;;;;5.97;1.50;;;;;;;8.46;50.86;102053.34;7395233;19;20022;-55
2022/04/10 10:47:26;;;;;;;4.68;1.00;;;;;;;8.63;50.20;102045.25;7394070;19;20336;-52
2022/04/10 10:49:56;;;;;;;3.45;1.00;;;;;;;9.06;51.83;102043.66;7390566;19;20018;-54
2022/04/10 10:52:25;;;;;;;4.88;1.45;;;;;;;9.14;51.70;102040.88;7392897;19;20026;-57
2022/04/10 10:54:57;;;;;;;12.05;1.75;;;;;;;9.30;50.57;102052.78;7391040;19;20018;-54
2022/04/10 10:57:28;;;;;;;7.30;1.42;;;;;;;9.46;49.22;102058.59;7392088;19;20448;-52
2022/04/10 11:00:14;;;;;;;4.03;1.13;;;;;;;8.91;47.59;102057.88;7390381;19;20026;-53
2022/04/10 11:02:50;;;;;;;5.28;1.20;;;;;;;9.79;48.70;102050.09;7392666;19;20010;-51
2022/04/10 11:05:30;;;;;;;3.72;0.90;;;;;;;10.05;46.61;102055.59;7394905;19;20015;-54
2022/04/10 11:08:00;;;;;;;4.07;1.15;;;;;;;9.91;48.73;102055.03;7392411;19;20488;-56
2022/04/10 11:10:31;;;;;;;5.05;1.00;;;;;;;9.71;46.74;102052.84;7390499;19;20021;-54
2022/04/10 11:13:05;;;;;;;4.22;1.15;;;;;;;10.13;49.97;102044.09;7392928;19;20015;-55
2022/04/10 11:15:35;;;;;;;3.03;1.10;;;;;;;10.54;49.51;102034.44;7391034;19;20366;-54
2022/04/10 11:18:31;;;;;;;2.17;1.10;;;;;;;10.89;49.33;102044.03;7392943;19;20333;-54
2022/04/10 11:21:07;;;;;;;5.68;1.30;;;;;;;10.24;44.75;102042.09;7391108;19;20038;-54
2022/04/10 11:23:41;;;;;;;5.22;1.00;;;;;;;10.57;48.00;102042.22;7391477;19;20344;-53
2022/04/10 11:26:16;;;;;;;4.57;1.10;;;;;;;10.80;47.33;102041.63;7394728;19;20022;-52
2022/04/10 11:29:04;;;;;;;4.03;1.17;;;;;;;11.29;44.63;102039.50;7389650;19;20337;-53
2022/04/10 11:31:35;;;;;;;5.05;1.30;;;;;;;10.74;44.45;102041.81;7385870;19;20081;-56
2022/04/10 11:34:14;;;;;;;5.15;1.45;;;;;;;11.24;43.07;102038.75;7391332;19;20349;-52
2022/04/10 11:36:52;;;;;;;3.17;1.13;;;;;;;10.57;41.68;102055.31;7390772;19;20111;-52
2022/04/10 11:39:26;;;;;;;2.67;1.02;;;;;;;10.52;41.96;102050.19;7393224;19;20018;-52
2022/04/10 11:41:55;;;;;;;2.63;0.90;;;;;;;10.75;43.61;102034.81;7392041;19;20136;-51
2022/04/10 11:44:26;;;;;;;4.18;1.05;;;;;;;11.58;45.43;102035.19;7393897;19;20111;-57
2022/04/10 11:46:55;;;;;;;4.00;1.20;;;;;;;11.90;42.12;102042.09;7392666;19;20022;-56
2022/04/10 11:49:26;;;;;;;3.63;1.08;;;;;;;10.83;42.79;102033.72;7390734;19;21641;-60
2022/04/10 11:51:56;;;;;;;3.85;1.08;;;;;;;11.28;44.17;102029.91;7392750;19;20026;-60
2022/04/10 11:54:31;;;;;;;3.70;1.40;;;;;;;11.55;41.11;102044.00;7391823;19;20025;-59